sensor_id;sensor_type;location;lat;lon;timestamp;P1;durP1;ratioP1;P2;durP2;ratioP2
64868;SDS011;51349;52.424;10.840;2023-07-29T00:04:20;5.78;;;4.78;;
64868;SDS011;51349;52.424;10.840;2023-07-29T00:09:21;5.25;;;4.85;;
64868;SDS011;51349;52.424;10.840;2023-07-29T00:14:22;4.90;;;4.30;;
64868;SDS011;51349;52.424;10.840;2023-07-29T00:19:22;5.63;;;4.80;;
64868;SDS011;51349;52.424;10.840;2023-07-29T00:24:23;5.00;;;4.70;;
64868;SDS011;51349;52.424;10.840;2023-07-29T00:29:24;4.70;;;4.40;;
64868;SDS011;51349;52.424;10.840;2023-07-29T00:34:24;4.72;;;4.43;;
64868;SDS011;51349;52.424;10.840;2023-07-29T00:39:25;5.63;;;4.82;;
64868;SDS011;51349;52.424;10.840;2023-07-29T00:44:26;5.00;;;4.70;;
64868;SDS011;51349;52.424;10.840;2023-07-29T00:49:27;4.72;;;4.35;;
64868;SDS011;51349;52.424;10.840;2023-07-29T00:54:28;5.07;;;4.68;;
64868;SDS011;51349;52.424;10.840;2023-07-29T00:59:28;5.22;;;4.72;;
64868;SDS011;51349;52.424;10.840;2023-07-29T01:04:31;5.20;;;4.80;;
64868;SDS011;51349;52.424;10.840;2023-07-29T01:09:43;4.70;;;4.30;;
64868;SDS011;51349;52.424;10.840;2023-07-29T01:14:55;5.22;;;4.55;;
64868;SDS011;51349;52.424;10.840;2023-07-29T01:20:15;5.60;;;4.68;;
64868;SDS011;51349;52.424;10.840;2023-07-29T01:25:17;4.60;;;4.30;;
64868;SDS011;51349;52.424;10.840;2023-07-29T01:30:18;4.40;;;4.10;;
64868;SDS011;51349;52.424;10.840;2023-07-29T01:35:23;4.05;;;3.85;;
64868;SDS011;51349;52.424;10.840;2023-07-29T01:40:26;5.07;;;3.95;;
64868;SDS011;51349;52.424;10.840;2023-07-29T01:45:28;4.05;;;3.85;;
64868;SDS011;51349;52.424;10.840;2023-07-29T01:50:31;3.90;;;3.60;;
64868;SDS011;51349;52.424;10.840;2023-07-29T01:55:32;3.53;;;3.33;;
64868;SDS011;51349;52.424;10.840;2023-07-29T02:00:33;4.10;;;3.78;;
64868;SDS011;51349;52.424;10.840;2023-07-29T02:05:33;3.90;;;3.70;;
64868;SDS011;51349;52.424;10.840;2023-07-29T02:10:34;3.70;;;3.40;;
64868;SDS011;51349;52.424;10.840;2023-07-29T02:15:36;3.83;;;3.55;;
64868;SDS011;51349;52.424;10.840;2023-07-29T02:20:36;4.68;;;3.20;;
64868;SDS011;51349;52.424;10.840;2023-07-29T02:25:37;3.88;;;3.58;;
64868;SDS011;51349;52.424;10.840;2023-07-29T02:30:41;3.20;;;2.95;;
64868;SDS011;51349;52.424;10.840;2023-07-29T02:35:44;3.75;;;3.38;;
64868;SDS011;51349;52.424;10.840;2023-07-29T02:40:45;3.85;;;3.17;;
64868;SDS011;51349;52.424;10.840;2023-07-29T02:45:45;4.53;;;3.25;;
64868;SDS011;51349;52.424;10.840;2023-07-29T02:50:46;3.63;;;3.38;;
64868;SDS011;51349;52.424;10.840;2023-07-29T02:55:47;2.92;;;2.75;;
64868;SDS011;51349;52.424;10.840;2023-07-29T03:00:47;3.38;;;3.08;;
64868;SDS011;51349;52.424;10.840;2023-07-29T03:05:48;3.47;;;3.17;;
64868;SDS011;51349;52.424;10.840;2023-07-29T03:10:49;3.90;;;3.33;;
64868;SDS011;51349;52.424;10.840;2023-07-29T03:15:51;3.22;;;3.03;;
64868;SDS011;51349;52.424;10.840;2023-07-29T03:20:52;4.55;;;3.05;;
64868;SDS011;51349;52.424;10.840;2023-07-29T03:25:55;3.55;;;3.35;;
64868;SDS011;51349;52.424;10.840;2023-07-29T03:30:58;3.95;;;3.00;;
64868;SDS011;51349;52.424;10.840;2023-07-29T03:35:59;3.67;;;3.00;;
64868;SDS011;51349;52.424;10.840;2023-07-29T03:40:59;3.40;;;3.10;;
64868;SDS011;51349;52.424;10.840;2023-07-29T03:46:02;3.20;;;2.90;;
64868;SDS011;51349;52.424;10.840;2023-07-29T03:51:03;3.03;;;2.83;;
64868;SDS011;51349;52.424;10.840;2023-07-29T03:56:04;2.72;;;2.53;;
64868;SDS011;51349;52.424;10.840;2023-07-29T04:01:04;3.03;;;2.83;;
64868;SDS011;51349;52.424;10.840;2023-07-29T04:06:05;3.15;;;2.85;;
64868;SDS011;51349;52.424;10.840;2023-07-29T04:11:05;3.90;;;2.88;;
64868;SDS011;51349;52.424;10.840;2023-07-29T04:16:06;2.85;;;2.60;;
64868;SDS011;51349;52.424;10.840;2023-07-29T04:21:07;2.88;;;2.78;;
64868;SDS011;51349;52.424;10.840;2023-07-29T04:26:09;3.88;;;2.60;;
64868;SDS011;51349;52.424;10.840;2023-07-29T04:31:09;5.68;;;2.72;;
64868;SDS011;51349;52.424;10.840;2023-07-29T04:36:10;4.03;;;2.90;;
64868;SDS011;51349;52.424;10.840;2023-07-29T04:41:10;2.78;;;2.58;;
64868;SDS011;51349;52.424;10.840;2023-07-29T04:46:11;2.65;;;2.55;;
64868;SDS011;51349;52.424;10.840;2023-07-29T04:51:12;2.83;;;2.55;;
64868;SDS011;51349;52.424;10.840;2023-07-29T04:56:12;3.80;;;2.60;;
64868;SDS011;51349;52.424;10.840;2023-07-29T05:01:13;3.03;;;2.67;;
64868;SDS011;51349;52.424;10.840;2023-07-29T05:06:14;3.45;;;2.58;;
64868;SDS011;51349;52.424;10.840;2023-07-29T05:11:14;3.53;;;2.70;;
64868;SDS011;51349;52.424;10.840;2023-07-29T05:16:15;2.95;;;2.50;;
64868;SDS011;51349;52.424;10.840;2023-07-29T05:21:15;5.13;;;2.55;;
64868;SDS011;51349;52.424;10.840;2023-07-29T05:26:16;2.80;;;2.67;;
64868;SDS011;51349;52.424;10.840;2023-07-29T05:31:17;3.20;;;2.90;;
64868;SDS011;51349;52.424;10.840;2023-07-29T05:36:17;6.28;;;2.90;;
64868;SDS011;51349;52.424;10.840;2023-07-29T05:41:18;3.65;;;2.92;;
64868;SDS011;51349;52.424;10.840;2023-07-29T05:46:19;2.80;;;2.63;;
64868;SDS011;51349;52.424;10.840;2023-07-29T05:51:19;4.20;;;2.70;;
64868;SDS011;51349;52.424;10.840;2023-07-29T05:56:20;2.83;;;2.53;;
64868;SDS011;51349;52.424;10.840;2023-07-29T06:01:21;2.85;;;2.65;;
64868;SDS011;51349;52.424;10.840;2023-07-29T06:06:22;2.50;;;2.40;;
64868;SDS011;51349;52.424;10.840;2023-07-29T06:11:23;2.30;;;2.20;;
64868;SDS011;51349;52.424;10.840;2023-07-29T06:16:24;2.60;;;2.40;;
64868;SDS011;51349;52.424;10.840;2023-07-29T06:21:24;2.55;;;2.28;;
64868;SDS011;51349;52.424;10.840;2023-07-29T06:26:25;2.42;;;2.33;;
64868;SDS011;51349;52.424;10.840;2023-07-29T06:31:26;2.38;;;2.15;;
64868;SDS011;51349;52.424;10.840;2023-07-29T06:36:26;2.75;;;2.40;;
64868;SDS011;51349;52.424;10.840;2023-07-29T06:41:27;7.05;;;2.42;;
64868;SDS011;51349;52.424;10.840;2023-07-29T06:46:28;6.88;;;2.50;;
64868;SDS011;51349;52.424;10.840;2023-07-29T06:51:29;2.80;;;2.60;;
64868;SDS011;51349;52.424;10.840;2023-07-29T06:56:32;3.10;;;2.42;;
64868;SDS011;51349;52.424;10.840;2023-07-29T07:01:33;2.25;;;2.15;;
64868;SDS011;51349;52.424;10.840;2023-07-29T07:06:34;5.10;;;2.33;;
64868;SDS011;51349;52.424;10.840;2023-07-29T07:11:35;6.28;;;2.83;;
64868;SDS011;51349;52.424;10.840;2023-07-29T07:16:35;6.18;;;2.53;;
64868;SDS011;51349;52.424;10.840;2023-07-29T07:21:36;1999.90;;;999.90;;
64868;SDS011;51349;52.424;10.840;2023-07-29T07:26:37;1999.90;;;999.90;;
64868;SDS011;51349;52.424;10.840;2023-07-29T07:31:38;1999.90;;;999.90;;
64868;SDS011;51349;52.424;10.840;2023-07-29T07:36:38;2.72;;;2.53;;
64868;SDS011;51349;52.424;10.840;2023-07-29T07:41:40;2.22;;;2.13;;
64868;SDS011;51349;52.424;10.840;2023-07-29T07:46:41;2.72;;;2.53;;
64868;SDS011;51349;52.424;10.840;2023-07-29T07:51:43;2.60;;;2.40;;
64868;SDS011;51349;52.424;10.840;2023-07-29T07:56:44;2.90;;;2.70;;
64868;SDS011;51349;52.424;10.840;2023-07-29T08:01:44;3.17;;;2.97;;
64868;SDS011;51349;52.424;10.840;2023-07-29T08:06:45;2.97;;;2.78;;
64868;SDS011;51349;52.424;10.840;2023-07-29T08:11:46;3.05;;;2.85;;
64868;SDS011;51349;52.424;10.840;2023-07-29T08:16:47;2.90;;;2.70;;
64868;SDS011;51349;52.424;10.840;2023-07-29T08:21:48;2.90;;;2.58;;
64868;SDS011;51349;52.424;10.840;2023-07-29T08:26:48;2.08;;;1.98;;
64868;SDS011;51349;52.424;10.840;2023-07-29T08:31:49;2.28;;;2.17;;
64868;SDS011;51349;52.424;10.840;2023-07-29T08:36:51;2.05;;;1.95;;
64868;SDS011;51349;52.424;10.840;2023-07-29T08:47:06;2.50;;;2.40;;
64868;SDS011;51349;52.424;10.840;2023-07-29T08:52:07;2.20;;;2.10;;
64868;SDS011;51349;52.424;10.840;2023-07-29T08:57:09;2.85;;;2.13;;
64868;SDS011;51349;52.424;10.840;2023-07-29T09:02:10;2.00;;;1.90;;
64868;SDS011;51349;52.424;10.840;2023-07-29T09:07:11;1.98;;;1.88;;
64868;SDS011;51349;52.424;10.840;2023-07-29T09:12:12;2.00;;;1.90;;
64868;SDS011;51349;52.424;10.840;2023-07-29T09:17:13;1.98;;;1.88;;
64868;SDS011;51349;52.424;10.840;2023-07-29T09:22:20;5.15;;;2.10;;
64868;SDS011;51349;52.424;10.840;2023-07-29T09:27:28;1.90;;;1.80;;
64868;SDS011;51349;52.424;10.840;2023-07-29T09:32:31;1.65;;;1.55;;
64868;SDS011;51349;52.424;10.840;2023-07-29T09:37:32;1.80;;;1.70;;
64868;SDS011;51349;52.424;10.840;2023-07-29T09:42:33;2.22;;;1.60;;
64868;SDS011;51349;52.424;10.840;2023-07-29T09:47:34;1.70;;;1.60;;
64868;SDS011;51349;52.424;10.840;2023-07-29T09:52:34;171.68;;;108.65;;
64868;SDS011;51349;52.424;10.840;2023-07-29T09:57:35;14.85;;;3.50;;
64868;SDS011;51349;52.424;10.840;2023-07-29T10:02:39;1.50;;;1.40;;
64868;SDS011;51349;52.424;10.840;2023-07-29T10:07:41;1.70;;;1.60;;
64868;SDS011;51349;52.424;10.840;2023-07-29T10:12:41;2.13;;;1.77;;
64868;SDS011;51349;52.424;10.840;2023-07-29T10:17:43;2.28;;;2.08;;
64868;SDS011;51349;52.424;10.840;2023-07-29T10:22:46;2.03;;;1.92;;
64868;SDS011;51349;52.424;10.840;2023-07-29T10:27:48;2.33;;;2.13;;
64868;SDS011;51349;52.424;10.840;2023-07-29T10:32:52;2.00;;;1.90;;
64868;SDS011;51349;52.424;10.840;2023-07-29T10:37:53;2.10;;;2.00;;
64868;SDS011;51349;52.424;10.840;2023-07-29T10:43:02;2.20;;;2.10;;
64868;SDS011;51349;52.424;10.840;2023-07-29T10:48:13;8.10;;;2.67;;
64868;SDS011;51349;52.424;10.840;2023-07-29T10:53:33;2.40;;;2.20;;
64868;SDS011;51349;52.424;10.840;2023-07-29T10:58:33;2.38;;;2.28;;
64868;SDS011;51349;52.424;10.840;2023-07-29T11:03:34;3.00;;;2.33;;
64868;SDS011;51349;52.424;10.840;2023-07-29T11:08:35;2.65;;;2.45;;
64868;SDS011;51349;52.424;10.840;2023-07-29T11:13:36;2.35;;;2.15;;
64868;SDS011;51349;52.424;10.840;2023-07-29T11:18:38;2.42;;;2.33;;
64868;SDS011;51349;52.424;10.840;2023-07-29T11:23:39;2.47;;;2.38;;
64868;SDS011;51349;52.424;10.840;2023-07-29T11:28:40;2.22;;;2.13;;
64868;SDS011;51349;52.424;10.840;2023-07-29T11:33:41;2.13;;;2.03;;
64868;SDS011;51349;52.424;10.840;2023-07-29T11:38:41;2.40;;;2.30;;
64868;SDS011;51349;52.424;10.840;2023-07-29T11:43:43;2.60;;;2.50;;
64868;SDS011;51349;52.424;10.840;2023-07-29T11:48:44;1999.90;;;999.90;;
64868;SDS011;51349;52.424;10.840;2023-07-29T11:53:45;580.90;;;326.77;;
64868;SDS011;51349;52.424;10.840;2023-07-29T11:58:49;1999.90;;;999.90;;
64868;SDS011;51349;52.424;10.840;2023-07-29T12:03:50;1999.90;;;999.90;;
64868;SDS011;51349;52.424;10.840;2023-07-29T12:08:51;1999.90;;;999.90;;
64868;SDS011;51349;52.424;10.840;2023-07-29T12:13:53;1999.90;;;999.90;;
64868;SDS011;51349;52.424;10.840;2023-07-29T12:18:54;1999.90;;;999.90;;
64868;SDS011;51349;52.424;10.840;2023-07-29T12:23:54;1999.90;;;999.90;;
64868;SDS011;51349;52.424;10.840;2023-07-29T12:28:55;1999.90;;;999.90;;
64868;SDS011;51349;52.424;10.840;2023-07-29T12:33:59;1999.90;;;999.90;;
64868;SDS011;51349;52.424;10.840;2023-07-29T12:38:59;1999.90;;;999.90;;
64868;SDS011;51349;52.424;10.840;2023-07-29T12:44:00;1999.90;;;999.90;;
64868;SDS011;51349;52.424;10.840;2023-07-29T12:49:00;1999.90;;;999.90;;
64868;SDS011;51349;52.424;10.840;2023-07-29T12:54:01;1511.85;;;760.72;;
64868;SDS011;51349;52.424;10.840;2023-07-29T12:59:03;12.45;;;12.05;;
64868;SDS011;51349;52.424;10.840;2023-07-29T13:04:05;42.08;;;38.00;;
64868;SDS011;51349;52.424;10.840;2023-07-29T13:09:05;29.70;;;28.60;;
64868;SDS011;51349;52.424;10.840;2023-07-29T13:14:06;1999.90;;;999.90;;
64868;SDS011;51349;52.424;10.840;2023-07-29T13:19:06;13.07;;;12.68;;
64868;SDS011;51349;52.424;10.840;2023-07-29T13:24:07;6.80;;;6.60;;
64868;SDS011;51349;52.424;10.840;2023-07-29T13:29:08;96.53;;;83.65;;
64868;SDS011;51349;52.424;10.840;2023-07-29T13:34:08;105.22;;;100.38;;
64868;SDS011;51349;52.424;10.840;2023-07-29T13:39:09;1999.90;;;999.90;;
64868;SDS011;51349;52.424;10.840;2023-07-29T13:44:10;1999.90;;;999.90;;
64868;SDS011;51349;52.424;10.840;2023-07-29T13:49:10;1999.90;;;999.90;;
64868;SDS011;51349;52.424;10.840;2023-07-29T13:54:11;1.90;;;1.80;;
64868;SDS011;51349;52.424;10.840;2023-07-29T13:59:12;2.33;;;1.70;;
64868;SDS011;51349;52.424;10.840;2023-07-29T14:04:13;2.00;;;1.70;;
64868;SDS011;51349;52.424;10.840;2023-07-29T14:09:14;505.38;;;36.53;;
64868;SDS011;51349;52.424;10.840;2023-07-29T14:14:14;1.30;;;1.30;;
64868;SDS011;51349;52.424;10.840;2023-07-29T14:19:15;1.35;;;1.35;;
64868;SDS011;51349;52.424;10.840;2023-07-29T14:24:16;1.63;;;1.27;;
64868;SDS011;51349;52.424;10.840;2023-07-29T14:29:16;1.63;;;1.17;;
64868;SDS011;51349;52.424;10.840;2023-07-29T14:34:17;2.22;;;1.30;;
64868;SDS011;51349;52.424;10.840;2023-07-29T14:39:18;1.25;;;1.20;;
64868;SDS011;51349;52.424;10.840;2023-07-29T14:44:19;1.73;;;1.10;;
64868;SDS011;51349;52.424;10.840;2023-07-29T14:49:20;1.13;;;1.13;;
64868;SDS011;51349;52.424;10.840;2023-07-29T14:54:20;1.50;;;1.40;;
64868;SDS011;51349;52.424;10.840;2023-07-29T14:59:21;1.40;;;1.30;;
64868;SDS011;51349;52.424;10.840;2023-07-29T15:04:22;1.40;;;1.30;;
64868;SDS011;51349;52.424;10.840;2023-07-29T15:09:22;1.63;;;1.10;;
64868;SDS011;51349;52.424;10.840;2023-07-29T15:14:23;3.83;;;1.30;;
64868;SDS011;51349;52.424;10.840;2023-07-29T15:19:24;1.30;;;1.30;;
64868;SDS011;51349;52.424;10.840;2023-07-29T15:24:25;3.65;;;1.50;;
64868;SDS011;51349;52.424;10.840;2023-07-29T15:29:25;1.27;;;1.20;;
64868;SDS011;51349;52.424;10.840;2023-07-29T15:34:26;1.38;;;1.27;;
64868;SDS011;51349;52.424;10.840;2023-07-29T15:39:31;1.00;;;1.00;;
64868;SDS011;51349;52.424;10.840;2023-07-29T15:44:32;1.27;;;1.27;;
64868;SDS011;51349;52.424;10.840;2023-07-29T15:49:32;1.60;;;1.50;;
64868;SDS011;51349;52.424;10.840;2023-07-29T15:54:33;1.30;;;1.30;;
64868;SDS011;51349;52.424;10.840;2023-07-29T15:59:34;1.38;;;1.27;;
64868;SDS011;51349;52.424;10.840;2023-07-29T16:04:34;1.65;;;1.30;;
64868;SDS011;51349;52.424;10.840;2023-07-29T16:09:35;1.20;;;1.20;;
64868;SDS011;51349;52.424;10.840;2023-07-29T16:14:35;1.40;;;1.23;;
64868;SDS011;51349;52.424;10.840;2023-07-29T16:19:51;1.65;;;1.27;;
64868;SDS011;51349;52.424;10.840;2023-07-29T16:24:56;1.30;;;1.30;;
64868;SDS011;51349;52.424;10.840;2023-07-29T16:30:01;2.78;;;1.73;;
64868;SDS011;51349;52.424;10.840;2023-07-29T16:35:02;1.42;;;1.30;;
64868;SDS011;51349;52.424;10.840;2023-07-29T16:40:03;1.30;;;1.30;;
64868;SDS011;51349;52.424;10.840;2023-07-29T16:45:06;1.52;;;1.42;;
64868;SDS011;51349;52.424;10.840;2023-07-29T16:50:08;1.50;;;1.50;;
64868;SDS011;51349;52.424;10.840;2023-07-29T16:55:08;2.38;;;1.90;;
64868;SDS011;51349;52.424;10.840;2023-07-29T17:00:09;1.73;;;1.63;;
64868;SDS011;51349;52.424;10.840;2023-07-29T17:05:10;1.33;;;1.33;;
64868;SDS011;51349;52.424;10.840;2023-07-29T17:10:11;1.70;;;1.55;;
64868;SDS011;51349;52.424;10.840;2023-07-29T17:15:12;1.42;;;1.40;;
64868;SDS011;51349;52.424;10.840;2023-07-29T17:20:13;1.55;;;1.50;;
64868;SDS011;51349;52.424;10.840;2023-07-29T17:25:14;1.17;;;1.17;;
64868;SDS011;51349;52.424;10.840;2023-07-29T17:30:15;1.40;;;1.40;;
64868;SDS011;51349;52.424;10.840;2023-07-29T17:35:15;1.65;;;1.52;;
64868;SDS011;51349;52.424;10.840;2023-07-29T17:40:17;1.67;;;1.58;;
64868;SDS011;51349;52.424;10.840;2023-07-29T17:45:18;1.70;;;1.60;;
64868;SDS011;51349;52.424;10.840;2023-07-29T17:50:19;1.80;;;1.70;;
64868;SDS011;51349;52.424;10.840;2023-07-29T17:55:19;1.75;;;1.65;;
64868;SDS011;51349;52.424;10.840;2023-07-29T18:00:20;1.70;;;1.60;;
64868;SDS011;51349;52.424;10.840;2023-07-29T18:05:21;1.88;;;1.70;;
64868;SDS011;51349;52.424;10.840;2023-07-29T18:10:22;2.00;;;1.90;;
64868;SDS011;51349;52.424;10.840;2023-07-29T18:15:24;1999.90;;;999.90;;
64868;SDS011;51349;52.424;10.840;2023-07-29T18:20:24;1999.90;;;999.90;;
64868;SDS011;51349;52.424;10.840;2023-07-29T18:25:25;1999.90;;;999.90;;
64868;SDS011;51349;52.424;10.840;2023-07-29T18:30:26;1999.90;;;999.90;;
64868;SDS011;51349;52.424;10.840;2023-07-29T18:35:26;1999.90;;;999.90;;
64868;SDS011;51349;52.424;10.840;2023-07-29T18:40:27;2.20;;;2.00;;
64868;SDS011;51349;52.424;10.840;2023-07-29T18:45:28;16.90;;;16.05;;
64868;SDS011;51349;52.424;10.840;2023-07-29T18:50:29;1.60;;;1.50;;
64868;SDS011;51349;52.424;10.840;2023-07-29T18:55:30;91.10;;;15.57;;
64868;SDS011;51349;52.424;10.840;2023-07-29T19:00:30;9.75;;;9.45;;
64868;SDS011;51349;52.424;10.840;2023-07-29T19:05:34;1999.90;;;999.90;;
64868;SDS011;51349;52.424;10.840;2023-07-29T19:10:34;137.20;;;130.85;;
64868;SDS011;51349;52.424;10.840;2023-07-29T19:15:35;1999.90;;;999.90;;
64868;SDS011;51349;52.424;10.840;2023-07-29T19:20:37;76.50;;;72.60;;
64868;SDS011;51349;52.424;10.840;2023-07-29T19:25:43;1999.90;;;999.90;;
64868;SDS011;51349;52.424;10.840;2023-07-29T19:30:45;409.70;;;82.45;;
64868;SDS011;51349;52.424;10.840;2023-07-29T19:35:45;2.30;;;2.20;;
64868;SDS011;51349;52.424;10.840;2023-07-29T19:40:53;3.25;;;2.05;;
64868;SDS011;51349;52.424;10.840;2023-07-29T19:45:54;1.98;;;1.88;;
64868;SDS011;51349;52.424;10.840;2023-07-29T19:50:55;2.00;;;1.90;;
64868;SDS011;51349;52.424;10.840;2023-07-29T19:55:55;3.22;;;1.95;;
64868;SDS011;51349;52.424;10.840;2023-07-29T20:00:57;2.15;;;2.00;;
64868;SDS011;51349;52.424;10.840;2023-07-29T20:05:57;190.05;;;14.85;;
64868;SDS011;51349;52.424;10.840;2023-07-29T20:11:01;2.30;;;2.13;;
64868;SDS011;51349;52.424;10.840;2023-07-29T20:16:02;594.67;;;519.30;;
64868;SDS011;51349;52.424;10.840;2023-07-29T20:21:02;1999.90;;;999.90;;
64868;SDS011;51349;52.424;10.840;2023-07-29T20:26:03;422.23;;;87.20;;
64868;SDS011;51349;52.424;10.840;2023-07-29T20:31:04;2.58;;;2.40;;
64868;SDS011;51349;52.424;10.840;2023-07-29T20:36:04;5.60;;;2.65;;
64868;SDS011;51349;52.424;10.840;2023-07-29T20:41:05;2.40;;;2.30;;
64868;SDS011;51349;52.424;10.840;2023-07-29T20:46:06;2.47;;;2.38;;
64868;SDS011;51349;52.424;10.840;2023-07-29T20:51:06;2.80;;;2.60;;
64868;SDS011;51349;52.424;10.840;2023-07-29T20:56:07;3.28;;;2.80;;
64868;SDS011;51349;52.424;10.840;2023-07-29T21:01:08;3.05;;;2.80;;
64868;SDS011;51349;52.424;10.840;2023-07-29T21:06:09;2.72;;;2.63;;
64868;SDS011;51349;52.424;10.840;2023-07-29T21:11:11;3.30;;;2.70;;
64868;SDS011;51349;52.424;10.840;2023-07-29T21:16:11;2.70;;;2.60;;
64868;SDS011;51349;52.424;10.840;2023-07-29T21:21:12;2.58;;;2.47;;
64868;SDS011;51349;52.424;10.840;2023-07-29T21:26:13;1999.90;;;177.60;;
64868;SDS011;51349;52.424;10.840;2023-07-29T21:31:14;1999.90;;;999.90;;
64868;SDS011;51349;52.424;10.840;2023-07-29T21:36:14;1999.90;;;999.90;;
64868;SDS011;51349;52.424;10.840;2023-07-29T21:41:15;94.97;;;8.07;;
64868;SDS011;51349;52.424;10.840;2023-07-29T21:46:15;780.03;;;710.10;;
64868;SDS011;51349;52.424;10.840;2023-07-29T21:51:17;2.97;;;2.78;;
64868;SDS011;51349;52.424;10.840;2023-07-29T21:56:18;2.90;;;2.70;;
64868;SDS011;51349;52.424;10.840;2023-07-29T22:01:19;132.95;;;9.95;;
64868;SDS011;51349;52.424;10.840;2023-07-29T22:06:20;4.03;;;3.72;;
64868;SDS011;51349;52.424;10.840;2023-07-29T22:11:21;3.47;;;3.28;;
64868;SDS011;51349;52.424;10.840;2023-07-29T22:16:21;1999.90;;;172.27;;
64868;SDS011;51349;52.424;10.840;2023-07-29T22:21:22;1999.90;;;999.90;;
64868;SDS011;51349;52.424;10.840;2023-07-29T22:26:22;16.98;;;15.88;;
64868;SDS011;51349;52.424;10.840;2023-07-29T22:31:23;77.05;;;27.30;;
64868;SDS011;51349;52.424;10.840;2023-07-29T22:36:24;1999.90;;;999.90;;
64868;SDS011;51349;52.424;10.840;2023-07-29T22:41:24;2.90;;;2.75;;
64868;SDS011;51349;52.424;10.840;2023-07-29T22:46:25;3.78;;;3.10;;
64868;SDS011;51349;52.424;10.840;2023-07-29T22:51:26;1398.82;;;131.73;;
64868;SDS011;51349;52.424;10.840;2023-07-29T22:56:26;3.25;;;3.05;;
64868;SDS011;51349;52.424;10.840;2023-07-29T23:01:27;3.03;;;2.78;;
64868;SDS011;51349;52.424;10.840;2023-07-29T23:06:28;3.15;;;2.92;;
64868;SDS011;51349;52.424;10.840;2023-07-29T23:11:28;2.92;;;2.72;;
64868;SDS011;51349;52.424;10.840;2023-07-29T23:16:29;2.92;;;2.60;;
64868;SDS011;51349;52.424;10.840;2023-07-29T23:21:29;2.45;;;2.35;;
64868;SDS011;51349;52.424;10.840;2023-07-29T23:26:30;2.45;;;2.30;;
64868;SDS011;51349;52.424;10.840;2023-07-29T23:31:31;3.45;;;2.30;;
64868;SDS011;51349;52.424;10.840;2023-07-29T23:36:32;2.30;;;2.10;;
64868;SDS011;51349;52.424;10.840;2023-07-29T23:41:32;2.00;;;1.90;;
64868;SDS011;51349;52.424;10.840;2023-07-29T23:46:33;2.47;;;2.20;;
64868;SDS011;51349;52.424;10.840;2023-07-29T23:51:33;2.15;;;1.95;;
64868;SDS011;51349;52.424;10.840;2023-07-29T23:56:34;2.50;;;2.30;;
